createdAt,value
2019-02-09T00:06:43.704Z,13.93
2019-02-09T00:13:30.598Z,10.07
2019-02-09T00:20:18.563Z,12.33
2019-02-09T00:27:04.474Z,12.20
2019-02-09T00:33:50.226Z,11.60
2019-02-09T00:40:37.062Z,7.87
2019-02-09T00:47:22.327Z,6.93
2019-02-09T00:54:08.236Z,7.73
2019-02-09T01:08:33.547Z,4.83
2019-02-09T01:15:19.198Z,6.23
2019-02-09T01:22:04.482Z,5.83
2019-02-09T01:28:49.359Z,3.90
2019-02-09T01:35:34.351Z,5.90
2019-02-09T01:43:10.988Z,8.30
2019-02-09T01:49:57.187Z,3.43
2019-02-09T01:56:42.136Z,4.43
2019-02-09T02:03:27.054Z,4.73
2019-02-09T02:10:18.072Z,7.17
2019-02-09T02:17:03.063Z,5.37
2019-02-09T02:23:48.051Z,6.00
2019-02-09T02:30:37.791Z,3.10
2019-02-09T02:37:22.936Z,3.30
2019-02-09T02:44:08.076Z,3.40
2019-02-09T02:50:53.113Z,8.20
2019-02-09T02:57:38.004Z,2.47
2019-02-09T03:04:23.031Z,3.83
2019-02-09T03:11:07.959Z,3.47
2019-02-09T03:17:53.205Z,3.30
2019-02-09T03:24:38.205Z,3.73
2019-02-09T03:31:23.119Z,5.23
2019-02-09T03:38:08.123Z,4.27
2019-02-09T03:44:53.069Z,2.33
2019-02-09T03:51:38.067Z,4.03
2019-02-09T03:58:22.987Z,1.90
2019-02-09T04:05:10.834Z,3.03
2019-02-09T04:11:55.694Z,2.67
2019-02-09T04:18:40.679Z,1.80
2019-02-09T04:25:25.863Z,3.50
2019-02-09T04:32:10.785Z,2.20
2019-02-09T04:38:55.864Z,1.53
2019-02-09T04:45:40.926Z,1.27
2019-02-09T04:52:25.795Z,1.33
2019-02-09T04:59:10.721Z,3.80
2019-02-09T05:05:55.566Z,1.93
2019-02-09T05:12:40.491Z,4.60
2019-02-09T05:19:25.564Z,1.87
2019-02-09T05:26:10.475Z,2.27
2019-02-09T05:32:55.769Z,2.37
2019-02-09T05:39:40.710Z,1.47
2019-02-09T05:46:25.619Z,2.20
2019-02-09T05:53:10.555Z,1.57
2019-02-09T05:59:55.411Z,1.83
2019-02-09T06:06:40.362Z,1.73
2019-02-09T06:13:25.231Z,2.73
2019-02-09T06:20:13.248Z,1.83
2019-02-09T06:26:58.191Z,2.80
2019-02-09T06:33:43.844Z,2.83
2019-02-09T06:40:29.444Z,1.57
2019-02-09T06:47:14.427Z,3.80
2019-02-09T06:53:59.279Z,2.10
2019-02-09T07:00:44.264Z,2.27
2019-02-09T07:07:29.108Z,2.77
2019-02-09T07:14:13.959Z,4.20
2019-02-09T07:20:58.814Z,2.13
2019-02-09T07:27:43.878Z,2.50
2019-02-09T07:34:28.739Z,2.70
2019-02-09T07:41:13.731Z,3.03
2019-02-09T07:48:04.011Z,7.43
2019-02-09T07:54:48.866Z,5.17
2019-02-09T08:01:33.736Z,3.23
2019-02-09T08:08:18.598Z,2.07
2019-02-09T08:15:05.299Z,3.10
2019-02-09T08:21:50.215Z,3.10
2019-02-09T08:28:35.076Z,3.83
2019-02-09T08:35:20.167Z,2.17
2019-02-09T08:42:05.423Z,2.17
2019-02-09T08:48:50.283Z,2.42
2019-02-09T08:55:35.287Z,1.85
2019-02-09T09:02:20.838Z,3.62
2019-02-09T09:09:08.991Z,3.10
2019-02-09T09:15:59.339Z,1.92
2019-02-09T09:22:44.202Z,3.75
2019-02-09T09:29:29.053Z,2.08
2019-02-09T09:36:14.064Z,2.85
2019-02-09T09:42:59.167Z,3.12
2019-02-09T09:49:44.030Z,1.60
2019-02-09T09:56:28.963Z,2.70
2019-02-09T10:03:13.891Z,2.07
2019-02-09T10:09:58.768Z,1.90
2019-02-09T10:16:43.623Z,1.73
2019-02-09T10:23:28.551Z,3.37
2019-02-09T10:30:21.382Z,1.20
2019-02-09T10:37:06.410Z,2.85
2019-02-09T10:43:51.512Z,4.87
2019-02-09T10:50:41.948Z,1.53
2019-02-09T10:57:26.935Z,3.47
2019-02-09T11:04:11.803Z,6.37
2019-02-09T11:11:01.055Z,3.20
2019-02-09T11:17:47.342Z,4.23
2019-02-09T11:24:32.208Z,4.20
2019-02-09T11:31:17.074Z,4.00
2019-02-09T11:38:01.985Z,6.95
2019-02-09T11:44:47.870Z,4.03
2019-02-09T11:51:36.695Z,3.50
2019-02-09T11:58:24.211Z,5.23
2019-02-09T12:05:09.411Z,5.33
2019-02-09T12:11:56.479Z,7.50
2019-02-09T12:18:41.798Z,5.13
2019-02-09T12:25:29.638Z,5.47
2019-02-09T12:32:14.578Z,3.20
2019-02-09T12:38:59.436Z,3.93
2019-02-09T12:45:44.356Z,3.10
2019-02-09T12:52:29.214Z,3.53
2019-02-09T12:59:15.365Z,6.17
2019-02-09T13:06:13.965Z,2.43
2019-02-09T13:13:04.127Z,5.67
2019-02-09T13:19:50.697Z,4.27
2019-02-09T13:26:35.766Z,6.90
2019-02-09T13:33:21.082Z,5.10
2019-02-09T13:40:12.143Z,4.50
2019-02-09T13:46:56.995Z,5.80
2019-02-09T13:53:41.922Z,4.17
2019-02-09T14:00:31.590Z,4.37
2019-02-09T14:07:16.448Z,5.50
2019-02-09T14:14:02.786Z,5.60
2019-02-09T14:20:47.721Z,5.70
2019-02-09T14:27:32.813Z,4.13
2019-02-09T14:34:17.673Z,3.00
2019-02-09T14:41:02.666Z,6.90
2019-02-09T14:47:47.671Z,7.80
2019-02-09T14:54:32.602Z,3.50
2019-02-09T15:01:17.527Z,3.37
2019-02-09T15:08:02.523Z,6.77
2019-02-09T15:14:48.799Z,5.47
2019-02-09T15:21:33.842Z,3.97
2019-02-09T15:28:19.115Z,5.40
2019-02-09T15:35:07.146Z,6.47
2019-02-09T15:41:52.070Z,4.60
2019-02-09T15:48:37.151Z,5.43
2019-02-09T15:55:23.250Z,4.57
2019-02-09T16:02:08.382Z,4.77
2019-02-09T16:08:53.241Z,7.40
2019-02-09T16:15:38.268Z,5.83
2019-02-09T16:22:23.923Z,5.30
2019-02-09T16:29:08.789Z,5.13
2019-02-09T16:35:53.715Z,6.37
2019-02-09T16:42:38.790Z,8.33
2019-02-09T16:49:24.093Z,4.83
2019-02-09T16:56:10.554Z,10.10
2019-02-09T17:02:55.843Z,6.97
2019-02-09T17:09:40.767Z,10.93
2019-02-09T17:16:25.707Z,14.13
2019-02-09T17:23:10.645Z,8.70
2019-02-09T17:29:55.717Z,9.73
2019-02-09T17:36:41.051Z,6.30
2019-02-09T17:43:25.973Z,6.50
2019-02-09T17:50:13.244Z,13.37
2019-02-09T17:56:58.201Z,12.63
2019-02-09T18:03:43.191Z,7.77
2019-02-09T18:10:28.249Z,11.67
2019-02-09T18:17:13.146Z,7.20
2019-02-09T18:23:58.134Z,7.13
2019-02-09T18:30:43.058Z,9.63
2019-02-09T18:37:28.374Z,7.03
2019-02-09T18:44:13.232Z,9.23
2019-02-09T18:50:59.431Z,7.10
2019-02-09T18:57:45.089Z,9.63
2019-02-09T19:04:30.671Z,8.27
2019-02-09T19:12:09.004Z,8.77
2019-02-09T19:18:53.595Z,8.03
2019-02-09T19:25:38.762Z,9.83
2019-02-09T19:32:23.602Z,12.17
2019-02-09T19:39:09.162Z,9.00
2019-02-09T19:45:54.011Z,9.27
2019-02-09T19:52:38.859Z,13.60
2019-02-09T19:59:23.815Z,11.50
2019-02-09T20:06:08.719Z,6.70
2019-02-09T20:12:53.970Z,9.03
2019-02-09T20:19:38.818Z,10.60
2019-02-09T20:26:23.739Z,10.80
2019-02-09T20:33:09.694Z,9.93
2019-02-09T20:39:54.539Z,13.35
2019-02-09T20:46:39.395Z,9.83
2019-02-09T20:53:24.313Z,15.97
2019-02-09T21:00:18.311Z,12.87
2019-02-09T21:07:01.862Z,9.20
2019-02-09T21:13:46.776Z,13.40
2019-02-09T21:20:31.635Z,10.13
2019-02-09T21:27:17.358Z,10.63
2019-02-09T21:34:02.384Z,9.60
2019-02-09T21:40:47.316Z,10.67
2019-02-09T21:47:32.238Z,11.23
2019-02-09T21:54:17.103Z,11.17
2019-02-09T22:01:01.959Z,11.20
2019-02-09T22:07:47.739Z,10.23
2019-02-09T22:14:32.722Z,9.67
2019-02-09T22:21:18.104Z,10.93
2019-02-09T22:28:03.420Z,9.53
2019-02-09T22:34:49.117Z,7.67
2019-02-09T22:41:35.634Z,10.97
2019-02-09T22:48:20.726Z,9.13
2019-02-09T22:55:08.713Z,6.93
2019-02-09T23:01:53.779Z,6.23
2019-02-09T23:08:39.883Z,14.80
2019-02-09T23:15:24.953Z,14.10
2019-02-09T23:22:09.976Z,9.10
2019-02-09T23:28:54.979Z,11.23
2019-02-09T23:35:39.903Z,5.53
2019-02-09T23:42:25.147Z,11.07
2019-02-09T23:49:10.006Z,8.77
2019-02-09T23:55:55.244Z,10.87
